Terminal Aerodrome Forecast
Issued by NWS

Home | Current Version | Previous Version | Text Only | Print | Product List | Glossary On
Versions: 1 2 3 4 5 6 7 8 9 10 11 12 13 14 15 16
000
FTUS42 TJSJ 251142
TAFKPK
TAF
TKPK 251142Z 2512/2612 09014KT P6SM VCSH FEW015 BKN050
      TEMPO 2512/2514 5SM SHRA BKN030
     FM251430 09012KT P6SM SHRA VCTS SCT025CB SCT030 BKN040
     FM252300 08008KT P6SM FEW018 SCT040
      AMD NOT SKED TIL 251100=

USA.gov is the U.S. government's official web portal to all federal, state and local government web resources and services.